Aeroporto :
LOGIN :

Iscrizione | Disclaimer

   EN    FR    IT 

 










Sommario :    VFR   VFR Marginale   IFR   IFR Intensivo   IFR Molto Intensivo
Visibilità : 
Base nubi : 
>= 8 km
>= 3000ft
5 / 8 km
1000 / 3000 ft
1500m / 5 km
500 / 1000 ft
800 / 1500m
200 / 500 ft
< 800m
< 200 ft
Simboli :   Temporali  Nebbia  Neve Forte  Precipitazioni Forti  Vento > 20 kt
SIGMETs :   Varie  Temporali  Ghiacco  Turbolenza  Onda orograficha  Ceneri Vulcaniche







- Altitudine del aeroporto : 412 ft
- Codice IATA : ORE
- Carte del aeroporto


LFOJ - Orleans

ULTIMO METAR :
  • 141700Z AUTO 00000KT CAVOK 11/09 Q1023 NOSIG

METARs OBSOLETI :
  • 141630Z AUTO 11003KT CAVOK 12/10 Q1023 NOSIG
  • 141600Z AUTO 10003KT CAVOK 14/10 Q1023 NOSIG
  • 141530Z AUTO 06003KT CAVOK 14/11 Q1023 NOSIG
  • 141500Z AUTO 12003KT 070V140 CAVOK 14/11 Q1023 NOSIG
  • 141430Z AUTO 11004KT 080V140 CAVOK 14/10 Q1023 NOSIG

TAF TAF LFOJ
Valido dal 14 a 15 ore il 15 a 15 ore UTC


141400Z 1415/1515 13005KT CAVOK
BECMG 1420/1422 3000 BR BKN005
PROB40
TEMPO 1501/1505 0700 FG VV///
Nessun NOTAM noto per questo aeroporto.



MetMap, La meteo Aeronautica in un colpo d'occhio ! - Copyright ORBIFLY Dicembre 2007 - Disclaimer

ORBIFLY MET'MAP TEAM :

Programmazione e sviluppo : Alexandra Zaïnal
Concezione e sviluppo : Baudouin d'Aumeries
Co-Programmazione e sviluppo : Marc-Olivier Méhu
Supporto tecnico e logistico : Manuel Goepfert
Aiuto per la traduzione : Arnaldo La Scala

Contatto : metmap@orbifly.com




FONTI E CREDITI :

   NOAA